createdAt,value
2024-03-16T00:02:15.023Z,94123.20
2024-03-16T00:04:43.641Z,94122.80
2024-03-16T00:07:09.857Z,94122.40
2024-03-16T00:09:36.124Z,94123.60
2024-03-16T00:12:02.530Z,94115.80
2024-03-16T00:14:29.222Z,94123.80
2024-03-16T00:16:55.915Z,94124.80
2024-03-16T00:19:22.115Z,94125.80
2024-03-16T00:21:48.408Z,94127.60
2024-03-16T00:24:14.915Z,94128.40
2024-03-16T00:26:41.511Z,94125.80
2024-03-16T00:29:07.938Z,94124.60
2024-03-16T00:31:34.378Z,94124.80
2024-03-16T00:34:00.788Z,94121.00
2024-03-16T00:36:27.260Z,94118.80
2024-03-16T00:38:53.585Z,94118.80
2024-03-16T00:41:20.570Z,94123.40
2024-03-16T00:43:46.942Z,94117.40
2024-03-16T00:46:13.668Z,94110.20
2024-03-16T00:48:39.978Z,94114.60
2024-03-16T00:51:06.374Z,94110.80
2024-03-16T00:53:33.098Z,94112.00
2024-03-16T00:55:59.520Z,94109.80
2024-03-16T00:58:25.834Z,94106.80
2024-03-16T01:00:52.554Z,94104.00
2024-03-16T01:03:18.820Z,94104.20
2024-03-16T01:05:46.876Z,94097.40
2024-03-16T01:08:13.076Z,94095.00
2024-03-16T01:10:39.762Z,94095.60
2024-03-16T01:13:06.124Z,94090.40
2024-03-16T01:15:33.203Z,94086.20
2024-03-16T01:17:59.615Z,94083.60
2024-03-16T01:20:28.347Z,94083.80
2024-03-16T01:22:54.895Z,94078.00
2024-03-16T01:25:21.302Z,94081.60
2024-03-16T01:27:47.577Z,94075.20
2024-03-16T01:30:15.784Z,94073.00
2024-03-16T01:32:42.134Z,94071.60
2024-03-16T01:35:10.229Z,94069.20
2024-03-16T01:37:36.455Z,94069.00
2024-03-16T01:40:02.823Z,94064.60
2024-03-16T01:42:29.217Z,94062.40
2024-03-16T01:44:55.533Z,94064.00
2024-03-16T01:47:22.170Z,94065.80
2024-03-16T01:49:48.447Z,94063.20
2024-03-16T01:52:14.855Z,94065.00
2024-03-16T01:54:41.054Z,94067.20
2024-03-16T01:57:07.430Z,94064.40
2024-03-16T01:59:34.439Z,94065.60
2024-03-16T02:02:00.697Z,94066.80
2024-03-16T02:04:26.925Z,94063.60
2024-03-16T02:06:53.134Z,94069.40
2024-03-16T02:09:20.166Z,94068.00
2024-03-16T02:11:46.722Z,94067.80
2024-03-16T02:14:13.327Z,94068.00
2024-03-16T02:16:40.157Z,94067.20
2024-03-16T02:19:07.933Z,94071.60
2024-03-16T02:21:35.380Z,94068.20
2024-03-16T02:24:01.626Z,94068.20
2024-03-16T02:26:27.964Z,94068.20
2024-03-16T02:28:54.202Z,94062.20
2024-03-16T02:31:20.448Z,94068.40
2024-03-16T02:33:46.731Z,94073.60
2024-03-16T02:36:13.756Z,94077.60
2024-03-16T02:38:40.860Z,94070.00
2024-03-16T02:41:08.040Z,94073.40
2024-03-16T02:43:34.649Z,94072.40
2024-03-16T02:46:00.980Z,94069.80
2024-03-16T02:48:27.517Z,94074.00
2024-03-16T02:50:53.941Z,94073.20
2024-03-16T02:53:20.153Z,94078.60
2024-03-16T02:55:46.382Z,94071.40
2024-03-16T02:58:13.568Z,94077.80
2024-03-16T03:00:39.937Z,94081.20
2024-03-16T03:03:07.606Z,94083.20
2024-03-16T03:05:34.057Z,94082.60
2024-03-16T03:08:00.179Z,94085.00
2024-03-16T03:10:26.398Z,94087.20
2024-03-16T03:12:52.733Z,94093.00
2024-03-16T03:15:20.443Z,94092.40
2024-03-16T03:17:46.871Z,94087.20
2024-03-16T03:20:13.892Z,94092.20
2024-03-16T03:22:40.307Z,94087.40
2024-03-16T03:25:06.830Z,94083.20
2024-03-16T03:27:34.296Z,94087.80
2024-03-16T03:30:00.501Z,94088.00
2024-03-16T03:32:27.052Z,94084.60
2024-03-16T03:34:53.305Z,94082.20
2024-03-16T03:37:21.327Z,94085.60
2024-03-16T03:39:49.004Z,94085.20
2024-03-16T03:42:15.363Z,94082.80
2024-03-16T03:44:50.566Z,94079.40
2024-03-16T03:47:16.848Z,94079.20
2024-03-16T03:49:51.025Z,94083.20
2024-03-16T03:52:17.681Z,94081.00
2024-03-16T03:54:44.235Z,94081.00
2024-03-16T03:57:11.339Z,94082.80
2024-03-16T03:59:37.661Z,94087.40
2024-03-16T04:02:03.991Z,94082.60
2024-03-16T04:04:30.340Z,94080.80
2024-03-16T04:06:56.722Z,94079.80
2024-03-16T04:09:22.966Z,94079.40
2024-03-16T04:11:49.321Z,94080.60
2024-03-16T04:14:15.581Z,94077.60
2024-03-16T04:16:41.792Z,94084.00
2024-03-16T04:19:08.238Z,94084.60
2024-03-16T04:21:34.647Z,94084.80
2024-03-16T04:24:01.001Z,94088.00
2024-03-16T04:26:27.584Z,94083.80
2024-03-16T04:28:54.367Z,94085.40
2024-03-16T04:31:20.587Z,94086.40
2024-03-16T04:33:47.037Z,94081.40
2024-03-16T04:36:14.473Z,94080.00
2024-03-16T04:38:41.300Z,94082.00
2024-03-16T04:41:07.830Z,94082.60
2024-03-16T04:43:34.650Z,94084.20
2024-03-16T04:46:00.947Z,94086.20
2024-03-16T04:48:27.353Z,94083.40
2024-03-16T04:50:53.649Z,94083.20
2024-03-16T04:53:19.826Z,94083.20
2024-03-16T04:55:46.198Z,94083.80
2024-03-16T04:58:12.525Z,94085.00
2024-03-16T05:00:39.177Z,94088.20
2024-03-16T05:03:05.531Z,94082.60
2024-03-16T05:05:31.840Z,94083.80
2024-03-16T05:07:58.209Z,94088.20
2024-03-16T05:10:25.421Z,94089.00
2024-03-16T05:12:51.695Z,94084.20
2024-03-16T05:15:17.915Z,94085.00
2024-03-16T05:17:44.242Z,94085.80
2024-03-16T05:20:11.150Z,94090.80
2024-03-16T05:22:38.288Z,94091.80
2024-03-16T05:25:05.875Z,94089.40
2024-03-16T05:27:32.230Z,94090.40
2024-03-16T05:29:58.715Z,94092.80
2024-03-16T05:32:24.997Z,94090.20
2024-03-16T05:34:51.391Z,94091.60
2024-03-16T05:37:18.256Z,94086.00
2024-03-16T05:39:44.523Z,94083.40
2024-03-16T05:42:11.904Z,94085.60
2024-03-16T05:44:38.339Z,94082.60
2024-03-16T05:47:04.626Z,94082.40
2024-03-16T05:49:30.786Z,94085.40
2024-03-16T05:51:57.105Z,94085.00
2024-03-16T05:54:23.374Z,94086.40
2024-03-16T05:56:50.161Z,94090.60
2024-03-16T05:59:16.399Z,94086.80
2024-03-16T06:01:43.515Z,94082.60
2024-03-16T06:04:10.020Z,94084.00
2024-03-16T06:06:36.337Z,94087.20
2024-03-16T06:09:04.170Z,94088.20
2024-03-16T06:11:32.204Z,94087.20
2024-03-16T06:13:58.596Z,94089.20
2024-03-16T06:16:24.793Z,94087.40
2024-03-16T06:18:51.091Z,94090.20
2024-03-16T06:21:17.405Z,94089.80
2024-03-16T06:23:43.916Z,94094.60
2024-03-16T06:26:17.370Z,94095.40
2024-03-16T06:28:47.331Z,94098.40
2024-03-16T06:31:13.988Z,94095.60
2024-03-16T06:33:45.944Z,94098.40
2024-03-16T06:36:12.343Z,94101.80
2024-03-16T06:38:38.524Z,94100.00
2024-03-16T06:41:04.890Z,94100.20
2024-03-16T06:43:31.053Z,94105.00
2024-03-16T06:45:57.373Z,94107.20
2024-03-16T06:48:23.669Z,94110.20
2024-03-16T06:50:50.021Z,94110.80
2024-03-16T06:53:16.340Z,94112.40
2024-03-16T06:55:42.817Z,94115.40
2024-03-16T06:58:10.634Z,94119.40
2024-03-16T07:00:38.008Z,94124.40
2024-03-16T07:03:05.147Z,94125.40
2024-03-16T07:05:31.401Z,94128.20
2024-03-16T07:07:58.321Z,94131.80
2024-03-16T07:10:24.591Z,94135.00
2024-03-16T07:12:50.854Z,94141.80
2024-03-16T07:15:17.221Z,94142.00
2024-03-16T07:17:43.544Z,94138.00
2024-03-16T07:20:11.607Z,94140.20
2024-03-16T07:22:38.904Z,94136.80
2024-03-16T07:25:05.726Z,94140.20
2024-03-16T07:27:32.732Z,94134.20
2024-03-16T07:29:59.790Z,94137.00
2024-03-16T07:32:26.737Z,94141.40
2024-03-16T07:34:52.932Z,94143.60
2024-03-16T07:37:19.228Z,94139.40
2024-03-16T07:39:45.604Z,94140.60
2024-03-16T07:42:11.784Z,94142.60
2024-03-16T07:44:41.046Z,94143.80
2024-03-16T07:47:07.251Z,94147.20
2024-03-16T07:49:33.404Z,94146.40
2024-03-16T07:52:00.399Z,94147.60
2024-03-16T07:54:26.729Z,94142.00
2024-03-16T07:56:52.997Z,94144.40
2024-03-16T07:59:20.194Z,94148.20
2024-03-16T08:01:46.469Z,94142.80
2024-03-16T08:04:12.786Z,94142.60
2024-03-16T08:06:39.270Z,94142.80
2024-03-16T08:09:12.419Z,94139.40
2024-03-16T08:11:38.804Z,94142.00
2024-03-16T08:14:11.711Z,94134.80
2024-03-16T08:16:37.921Z,94132.80
2024-03-16T08:19:04.264Z,94133.00
2024-03-16T08:21:30.845Z,94135.40
2024-03-16T08:23:57.324Z,94132.80
2024-03-16T08:26:23.674Z,94129.60
2024-03-16T08:28:49.855Z,94127.80
2024-03-16T08:31:16.359Z,94124.60
2024-03-16T08:33:42.994Z,94127.60
2024-03-16T08:36:09.218Z,94127.80
2024-03-16T08:38:36.699Z,94130.80
2024-03-16T08:41:06.059Z,94127.60
2024-03-16T08:43:32.882Z,94130.60
2024-03-16T08:45:59.160Z,94132.60
2024-03-16T08:48:25.571Z,94132.20
2024-03-16T08:50:51.915Z,94135.20
2024-03-16T08:53:18.080Z,94135.60
2024-03-16T08:55:44.863Z,94135.60
2024-03-16T08:58:11.449Z,94138.00
2024-03-16T09:00:37.722Z,94128.00
2024-03-16T09:03:05.307Z,94136.40
2024-03-16T09:05:31.647Z,94132.00
2024-03-16T09:07:57.987Z,94134.80
2024-03-16T09:10:24.219Z,94134.80
2024-03-16T09:12:50.547Z,94131.80
2024-03-16T09:15:16.989Z,94132.40
2024-03-16T09:17:43.453Z,94130.20
2024-03-16T09:20:10.613Z,94133.80
2024-03-16T09:22:37.169Z,94134.40
2024-03-16T09:25:06.756Z,94134.60
2024-03-16T09:27:34.235Z,94138.80
2024-03-16T09:30:00.569Z,94139.40
2024-03-16T09:32:26.856Z,94140.00
2024-03-16T09:34:53.174Z,94138.60
2024-03-16T09:37:19.583Z,94146.20
2024-03-16T09:39:45.823Z,94145.20
2024-03-16T09:42:12.978Z,94147.60
2024-03-16T09:44:39.242Z,94150.00
2024-03-16T09:47:06.298Z,94149.20
2024-03-16T09:49:35.801Z,94152.40
2024-03-16T09:52:02.028Z,94153.20
2024-03-16T09:54:28.637Z,94157.60
2024-03-16T09:56:54.832Z,94158.80
2024-03-16T09:59:30.500Z,94162.00
2024-03-16T10:01:57.501Z,94165.20
2024-03-16T10:04:23.749Z,94166.60
2024-03-16T10:06:50.083Z,94168.80
2024-03-16T10:09:16.474Z,94171.20
2024-03-16T10:11:43.883Z,94177.20
2024-03-16T10:14:10.526Z,94181.60
2024-03-16T10:16:40.881Z,94179.60
2024-03-16T10:19:07.200Z,94180.00
2024-03-16T10:21:33.504Z,94180.20
2024-03-16T10:23:59.806Z,94180.60
2024-03-16T10:26:30.725Z,94182.20
2024-03-16T10:28:57.078Z,94182.40
2024-03-16T10:31:23.284Z,94175.60
2024-03-16T10:33:49.570Z,94175.20
2024-03-16T10:36:16.419Z,94173.60
2024-03-16T10:38:42.794Z,94175.80
2024-03-16T10:41:09.562Z,94177.20
2024-03-16T10:43:36.356Z,94170.40
2024-03-16T10:46:02.686Z,94169.40
2024-03-16T10:48:29.191Z,94169.80
2024-03-16T10:50:57.594Z,94168.60
2024-03-16T10:53:25.955Z,94167.20
2024-03-16T10:55:53.342Z,94165.40
2024-03-16T10:58:20.390Z,94165.60
2024-03-16T11:00:46.640Z,94167.40
2024-03-16T11:03:12.989Z,94168.40
2024-03-16T11:05:49.507Z,94166.40
2024-03-16T11:08:15.785Z,94159.20
2024-03-16T11:10:42.781Z,94156.40
2024-03-16T11:13:09.182Z,94153.60
2024-03-16T11:15:37.691Z,94150.40
2024-03-16T11:18:04.342Z,94146.00
2024-03-16T11:20:31.740Z,94146.40
2024-03-16T11:22:57.971Z,94146.20
2024-03-16T11:25:24.275Z,94144.20
2024-03-16T11:27:50.704Z,94145.40
2024-03-16T11:30:29.723Z,94143.20
2024-03-16T11:33:00.752Z,94143.40
2024-03-16T11:35:27.786Z,94139.20
2024-03-16T11:37:54.152Z,94140.20
2024-03-16T11:40:28.001Z,94135.20
2024-03-16T11:42:54.395Z,94135.40
2024-03-16T11:45:20.700Z,94130.40
2024-03-16T11:47:46.932Z,94126.60
2024-03-16T11:50:14.487Z,94124.20
2024-03-16T11:52:40.788Z,94120.40
2024-03-16T11:55:07.335Z,94124.00
2024-03-16T11:57:34.028Z,94121.00
2024-03-16T12:00:00.199Z,94121.60
2024-03-16T12:02:26.393Z,94121.40
2024-03-16T12:04:53.362Z,94119.60
2024-03-16T12:07:19.474Z,94124.00
2024-03-16T12:09:46.037Z,94123.80
2024-03-16T12:12:12.271Z,94121.20
2024-03-16T12:14:43.301Z,94120.60
2024-03-16T12:17:10.182Z,94119.20
2024-03-16T12:19:38.490Z,94117.80
2024-03-16T12:22:06.928Z,94117.80
2024-03-16T12:24:33.203Z,94120.40
2024-03-16T12:26:59.408Z,94116.60
2024-03-16T12:29:25.657Z,94114.40
2024-03-16T12:31:57.048Z,94117.80
2024-03-16T12:34:25.354Z,94114.40
2024-03-16T12:36:55.034Z,94117.80
2024-03-16T12:39:25.660Z,94117.80
2024-03-16T12:41:51.920Z,94113.40
2024-03-16T12:44:18.341Z,94110.00
2024-03-16T12:46:47.394Z,94108.80
2024-03-16T12:49:13.582Z,94101.80
2024-03-16T12:51:39.907Z,94104.60
2024-03-16T12:54:08.484Z,94102.80
2024-03-16T12:56:41.247Z,94101.40
2024-03-16T12:59:07.803Z,94101.40
2024-03-16T13:01:34.493Z,94103.20
2024-03-16T13:04:00.693Z,94096.00
2024-03-16T13:06:27.896Z,94097.20
2024-03-16T13:08:54.189Z,94096.80
2024-03-16T13:11:25.618Z,94093.20
2024-03-16T13:13:51.796Z,94090.80
2024-03-16T13:16:18.428Z,94089.20
2024-03-16T13:18:44.774Z,94088.40
2024-03-16T13:21:14.073Z,94086.40
2024-03-16T13:23:40.327Z,94082.00
2024-03-16T13:26:06.481Z,94084.40
2024-03-16T13:28:33.968Z,94083.00
2024-03-16T13:31:00.201Z,94078.00
2024-03-16T13:33:26.444Z,94075.40
2024-03-16T13:35:54.563Z,94070.40
2024-03-16T13:38:20.795Z,94068.60
2024-03-16T13:40:47.071Z,94070.80
2024-03-16T13:43:14.302Z,94070.60
2024-03-16T13:45:40.973Z,94066.60
2024-03-16T13:48:08.028Z,94068.00
2024-03-16T13:50:34.173Z,94068.60
2024-03-16T13:53:00.479Z,94062.60
2024-03-16T13:55:28.183Z,94061.80
2024-03-16T13:57:56.515Z,94064.40
2024-03-16T14:00:23.050Z,94060.80
2024-03-16T14:02:52.208Z,94056.60
2024-03-16T14:05:19.759Z,94061.40
2024-03-16T14:07:48.120Z,94058.40
2024-03-16T14:10:18.523Z,94059.60
2024-03-16T14:12:54.277Z,94055.40
2024-03-16T14:15:20.529Z,94058.00
2024-03-16T14:17:46.693Z,94053.00
2024-03-16T14:20:19.256Z,94050.00
2024-03-16T14:22:45.495Z,94042.00
2024-03-16T14:25:12.110Z,94038.80
2024-03-16T14:27:39.209Z,94037.40
2024-03-16T14:30:13.851Z,94042.00
2024-03-16T14:32:40.631Z,94035.20
2024-03-16T14:35:09.948Z,94033.60
2024-03-16T14:37:36.136Z,94038.20
2024-03-16T14:40:10.399Z,94038.40
2024-03-16T14:42:36.750Z,94042.00
2024-03-16T14:45:02.984Z,94043.40
2024-03-16T14:47:29.879Z,94042.40
2024-03-16T14:49:56.995Z,94040.60
2024-03-16T14:52:23.322Z,94044.60
2024-03-16T14:54:49.676Z,94044.40
2024-03-16T14:57:18.541Z,94040.80
2024-03-16T14:59:45.440Z,94045.40
2024-03-16T15:02:11.772Z,94045.60
2024-03-16T15:04:38.231Z,94045.60
2024-03-16T15:07:05.408Z,94048.60
2024-03-16T15:09:31.604Z,94045.20
2024-03-16T15:11:58.276Z,94046.60
2024-03-16T15:14:24.442Z,94048.40
2024-03-16T15:16:50.616Z,94050.20
2024-03-16T15:19:16.840Z,94051.20
2024-03-16T15:21:43.502Z,94050.00
2024-03-16T15:24:09.832Z,94052.80
2024-03-16T15:26:46.790Z,94055.80
2024-03-16T15:29:13.082Z,94056.60
2024-03-16T15:31:39.451Z,94054.00
2024-03-16T15:34:05.695Z,94055.00
2024-03-16T15:36:31.992Z,94057.40
2024-03-16T15:38:59.904Z,94055.60
2024-03-16T15:41:27.109Z,94061.20
2024-03-16T15:43:53.687Z,94058.60
2024-03-16T15:46:20.272Z,94056.40
2024-03-16T15:48:46.819Z,94057.40
2024-03-16T15:51:13.397Z,94059.00
2024-03-16T15:53:40.686Z,94055.60
2024-03-16T15:56:07.070Z,94057.60
2024-03-16T15:58:33.494Z,94056.60
2024-03-16T16:00:59.907Z,94057.20
2024-03-16T16:03:26.385Z,94057.60
2024-03-16T16:05:52.978Z,94060.40
2024-03-16T16:11:10.780Z,94061.40
2024-03-16T16:13:37.220Z,94066.20
2024-03-16T16:16:03.715Z,94066.80
2024-03-16T16:18:30.303Z,94072.60
2024-03-16T16:20:56.757Z,94071.80
2024-03-16T16:23:23.235Z,94079.20
2024-03-16T16:25:49.528Z,94081.00
2024-03-16T16:28:16.214Z,94083.40
2024-03-16T16:30:42.706Z,94090.20
2024-03-16T16:33:09.337Z,94088.80
2024-03-16T16:35:37.494Z,94093.20
2024-03-16T16:38:05.129Z,94090.80
2024-03-16T16:40:31.734Z,94101.60
2024-03-16T16:42:58.071Z,94108.20
2024-03-16T16:45:24.758Z,94108.00
2024-03-16T16:47:51.190Z,94117.20
2024-03-16T16:50:17.579Z,94122.20
2024-03-16T16:52:44.395Z,94128.40
2024-03-16T16:55:11.175Z,94134.20
2024-03-16T16:57:37.541Z,94136.60
2024-03-16T17:00:10.329Z,94139.40
2024-03-16T17:02:36.941Z,94141.00
2024-03-16T17:05:03.249Z,94137.40
2024-03-16T17:07:29.566Z,94138.60
2024-03-16T17:09:56.337Z,94137.20
2024-03-16T17:12:22.635Z,94126.80
2024-03-16T17:14:48.960Z,94125.60
2024-03-16T17:17:15.158Z,94129.00
2024-03-16T17:19:41.359Z,94134.40
2024-03-16T17:22:09.541Z,94137.60
2024-03-16T17:24:35.939Z,94142.80
2024-03-16T17:27:03.408Z,94144.40
2024-03-16T17:29:34.318Z,94142.00
2024-03-16T17:32:00.496Z,94143.40
2024-03-16T17:34:26.799Z,94152.60
2024-03-16T17:36:54.040Z,94156.20
2024-03-16T17:39:23.841Z,94159.20
2024-03-16T17:41:53.829Z,94161.60
2024-03-16T17:44:20.344Z,94160.60
2024-03-16T17:46:46.728Z,94159.80
2024-03-16T17:49:13.081Z,94163.80
2024-03-16T17:51:41.247Z,94167.40
2024-03-16T17:54:08.352Z,94168.40
2024-03-16T17:56:34.675Z,94163.60
2024-03-16T17:59:01.770Z,94166.60
2024-03-16T18:01:28.018Z,94171.20
2024-03-16T18:03:54.489Z,94175.40
2024-03-16T18:06:21.430Z,94174.20
2024-03-16T18:08:47.937Z,94171.60
2024-03-16T18:11:14.489Z,94171.20
2024-03-16T18:13:40.734Z,94178.60
2024-03-16T18:16:07.133Z,94182.00
2024-03-16T18:18:33.417Z,94186.40
2024-03-16T18:20:59.689Z,94186.40
2024-03-16T18:23:26.751Z,94190.60
2024-03-16T18:25:52.947Z,94188.60
2024-03-16T18:28:20.365Z,94193.80
2024-03-16T18:30:46.641Z,94192.20
2024-03-16T18:33:13.334Z,94191.80
2024-03-16T18:35:41.356Z,94191.40
2024-03-16T18:38:07.663Z,94194.80
2024-03-16T18:40:37.966Z,94196.00
2024-03-16T18:43:07.784Z,94197.80
2024-03-16T18:45:37.467Z,94200.00
2024-03-16T18:48:04.231Z,94200.80
2024-03-16T18:50:32.229Z,94200.80
2024-03-16T18:52:58.679Z,94202.80
2024-03-16T18:55:28.883Z,94204.40
2024-03-16T18:58:01.023Z,94202.40
2024-03-16T19:00:39.090Z,94206.00
2024-03-16T19:03:06.159Z,94205.00
2024-03-16T19:05:32.634Z,94212.40
2024-03-16T19:07:59.071Z,94216.20
2024-03-16T19:10:25.452Z,94216.80
2024-03-16T19:12:51.919Z,94216.00
2024-03-16T19:15:19.209Z,94221.00
2024-03-16T19:17:53.114Z,94220.40
2024-03-16T19:20:22.978Z,94216.20
2024-03-16T19:22:49.752Z,94212.60
2024-03-16T19:25:16.753Z,94207.80
2024-03-16T19:27:43.066Z,94206.60
2024-03-16T19:30:12.532Z,94209.60
2024-03-16T19:32:39.949Z,94207.60
2024-03-16T19:35:06.148Z,94207.40
2024-03-16T19:37:32.859Z,94202.80
2024-03-16T19:39:59.384Z,94205.40
2024-03-16T19:42:26.671Z,94205.20
2024-03-16T19:44:52.948Z,94207.20
2024-03-16T19:47:19.192Z,94210.40
2024-03-16T19:49:45.728Z,94205.80
2024-03-16T19:52:12.050Z,94207.20
2024-03-16T19:54:38.979Z,94208.00
2024-03-16T19:57:05.427Z,94206.40
2024-03-16T19:59:31.653Z,94210.00
2024-03-16T20:01:57.891Z,94209.60
2024-03-16T20:04:24.109Z,94213.00
2024-03-16T20:06:55.379Z,94213.20
2024-03-16T20:09:22.368Z,94209.80
2024-03-16T20:11:49.029Z,94213.80
2024-03-16T20:14:16.431Z,94216.00
2024-03-16T20:16:42.707Z,94216.80
2024-03-16T20:19:09.231Z,94223.80
2024-03-16T20:21:36.301Z,94225.00
2024-03-16T20:24:02.608Z,94229.60
2024-03-16T20:26:29.164Z,94232.00
2024-03-16T20:28:55.452Z,94241.00
2024-03-16T20:31:21.623Z,94242.40
2024-03-16T20:33:47.847Z,94247.80
2024-03-16T20:36:14.371Z,94245.80
2024-03-16T20:38:40.831Z,94237.40
2024-03-16T20:41:11.791Z,94241.40
2024-03-16T20:43:38.053Z,94237.20
2024-03-16T20:46:04.268Z,94239.40
2024-03-16T20:48:30.510Z,94232.80
2024-03-16T20:50:56.916Z,94226.40
2024-03-16T20:53:24.917Z,94225.20
2024-03-16T20:55:53.099Z,94221.80
2024-03-16T20:58:20.661Z,94219.80
2024-03-16T21:00:47.303Z,94215.00
2024-03-16T21:03:13.586Z,94216.00
2024-03-16T21:05:40.095Z,94209.80
2024-03-16T21:08:06.487Z,94208.80
2024-03-16T21:10:33.160Z,94209.60
2024-03-16T21:12:59.901Z,94210.20
2024-03-16T21:15:26.333Z,94213.40
2024-03-16T21:17:52.490Z,94212.00
2024-03-16T21:20:20.261Z,94213.40
2024-03-16T21:22:46.558Z,94211.00
2024-03-16T21:25:12.769Z,94215.20
2024-03-16T21:27:41.295Z,94215.00
2024-03-16T21:30:10.536Z,94215.40
2024-03-16T21:32:43.950Z,94216.00
2024-03-16T21:35:13.808Z,94222.20
2024-03-16T21:37:40.365Z,94218.80
2024-03-16T21:40:07.729Z,94219.80
2024-03-16T21:42:33.964Z,94228.40
2024-03-16T21:45:00.381Z,94226.80
2024-03-16T21:47:26.669Z,94231.00
2024-03-16T21:49:52.872Z,94225.60
2024-03-16T21:52:19.982Z,94220.60
2024-03-16T21:54:46.226Z,94223.20
2024-03-16T21:57:12.448Z,94219.40
2024-03-16T21:59:38.720Z,94213.40
2024-03-16T22:02:07.433Z,94214.20
2024-03-16T22:04:33.693Z,94216.00
2024-03-16T22:07:01.278Z,94222.40
2024-03-16T22:09:27.707Z,94217.60
2024-03-16T22:11:53.835Z,94226.80
2024-03-16T22:14:20.156Z,94225.20
2024-03-16T22:16:46.780Z,94238.60
2024-03-16T22:19:13.279Z,94245.20
2024-03-16T22:21:39.978Z,94245.00
2024-03-16T22:24:08.180Z,94250.40
2024-03-16T22:26:34.509Z,94253.80
2024-03-16T22:29:00.771Z,94251.20
2024-03-16T22:31:30.359Z,94257.40
2024-03-16T22:33:56.627Z,94258.80
2024-03-16T22:36:28.549Z,94257.80
2024-03-16T22:38:55.475Z,94263.40
2024-03-16T22:41:21.608Z,94259.20
2024-03-16T22:43:48.145Z,94258.40
2024-03-16T22:46:14.431Z,94263.40
2024-03-16T22:48:40.636Z,94262.00
2024-03-16T22:51:06.750Z,94268.20
2024-03-16T22:53:33.272Z,94271.00
2024-03-16T22:55:59.870Z,94270.00
2024-03-16T22:58:26.233Z,94270.20
2024-03-16T23:00:52.442Z,94267.60
2024-03-16T23:03:18.941Z,94266.60
2024-03-16T23:05:45.568Z,94265.00
2024-03-16T23:08:11.800Z,94262.40
2024-03-16T23:10:37.922Z,94259.60
2024-03-16T23:13:04.355Z,94256.60
2024-03-16T23:15:31.463Z,94263.80
2024-03-16T23:17:58.922Z,94262.60
2024-03-16T23:20:25.547Z,94264.00
2024-03-16T23:22:51.787Z,94263.20
2024-03-16T23:25:17.943Z,94256.40
2024-03-16T23:27:44.468Z,94255.40
2024-03-16T23:30:12.259Z,94254.40
2024-03-16T23:32:39.256Z,94257.00
2024-03-16T23:35:05.493Z,94254.40
2024-03-16T23:37:33.985Z,94255.00
2024-03-16T23:40:00.647Z,94254.40
2024-03-16T23:42:29.245Z,94252.00
2024-03-16T23:44:55.447Z,94249.20
2024-03-16T23:47:24.274Z,94250.80
2024-03-16T23:49:51.472Z,94247.60
2024-03-16T23:52:17.821Z,94244.20
2024-03-16T23:54:45.031Z,94243.80
2024-03-16T23:57:11.163Z,94244.60
2024-03-16T23:59:37.379Z,94250.40
